Time;durP1;ratioP1;P1;durP2;ratioP2;P2;SDS_P1;SDS_P2;PMS_P1;PMS_P2;Temp;Humidity;BMP_temperature;BMP_pressure;BME280_temperature;BME280_humidity;BME280_pressure;Samples;Min_cycle;Max_cycle;Signal;HPM_P1;HPM_P2
2022/11/20 00:01:11;;;;;;;1.35;1.10;;;;;;;16.79;88.35;99134.97;7396666;19;20353;-57
2022/11/20 00:03:37;;;;;;;1.10;1.00;;;;;;;17.11;86.79;99133.66;7394827;19;20014;-56
2022/11/20 00:06:05;;;;;;;0.38;0.28;;;;;;;17.18;85.40;99137.91;7394183;19;20371;-56
2022/11/20 00:08:31;;;;;;;2.10;0.63;;;;;;;17.16;86.05;99132.06;7395585;19;20027;-56
2022/11/20 00:11:09;;;;;;;9.18;1.38;;;;;;;17.31;85.48;99135.13;7396306;19;20018;-56
2022/11/20 00:13:36;;;;;;;1.65;1.17;;;;;;;17.09;85.55;99130.63;7394470;19;20011;-57
2022/11/20 00:16:06;;;;;;;0.73;0.73;;;;;;;16.71;87.83;99125.66;7393694;19;20011;-56
2022/11/20 00:18:33;;;;;;;3.20;1.20;;;;;;;16.16;90.26;99139.19;7394615;19;20011;-56
2022/11/20 00:21:03;;;;;;;3.45;1.65;;;;;;;15.70;93.06;99131.88;7398781;19;20013;-57
2022/11/20 00:23:29;;;;;;;15.10;1.42;;;;;;;16.42;91.04;99125.28;7394623;19;20010;-56
2022/11/20 00:25:56;;;;;;;1.40;0.82;;;;;;;16.51;89.69;99118.56;7394040;19;20021;-57
2022/11/20 00:28:22;;;;;;;5.68;1.00;;;;;;;16.77;88.70;99120.69;7390468;19;20002;-57
2022/11/20 00:30:48;;;;;;;2.75;0.88;;;;;;;17.15;87.69;99124.94;7392755;19;20021;-56
2022/11/20 00:33:14;;;;;;;4.68;1.42;;;;;;;17.52;85.56;99110.69;7393685;19;20777;-56
2022/11/20 00:35:40;;;;;;;3.08;0.98;;;;;;;17.53;85.03;99112.22;7394019;19;20015;-56
2022/11/20 00:38:06;;;;;;;2.70;0.98;;;;;;;17.56;84.86;99116.78;7393558;19;20010;-57
2022/11/20 00:40:32;;;;;;;5.03;1.95;;;;;;;17.43;85.47;99108.28;7393932;19;20006;-57
2022/11/20 00:42:58;;;;;;;1.30;0.82;;;;;;;17.70;84.03;99107.00;7392596;19;20019;-57
2022/11/20 00:45:25;;;;;;;0.75;0.63;;;;;;;17.57;84.35;99092.94;7392746;19;20039;-57
2022/11/20 00:47:51;;;;;;;2.38;1.05;;;;;;;17.68;84.46;99097.56;7389896;19;20010;-57
2022/11/20 00:50:17;;;;;;;2.40;1.83;;;;;;;17.83;83.39;99083.69;7394834;19;20015;-57
2022/11/20 00:52:43;;;;;;;2.30;0.90;;;;;;;17.90;83.25;99080.97;7391586;19;21139;-57
2022/11/20 00:55:09;;;;;;;1.25;0.65;;;;;;;17.44;84.35;99081.63;7391345;19;20018;-57
2022/11/20 00:57:35;;;;;;;23.45;1.60;;;;;;;17.39;84.32;99071.25;7389789;19;20752;-57
2022/11/20 01:00:02;;;;;;;4.75;1.17;;;;;;;17.38;84.63;99066.94;7392515;19;20014;-57
2022/11/20 01:02:28;;;;;;;0.50;0.38;;;;;;;17.53;84.17;99067.16;7396470;19;20034;-57
2022/11/20 01:04:54;;;;;;;0.47;0.47;;;;;;;17.51;84.31;99058.50;7389810;19;20044;-56
2022/11/20 01:07:20;;;;;;;1.38;1.27;;;;;;;17.48;83.92;99059.53;7391769;19;20090;-56
2022/11/20 01:09:46;;;;;;;0.60;0.60;;;;;;;17.78;82.97;99048.72;7391978;19;20007;-57
2022/11/20 01:12:12;;;;;;;1.85;1.05;;;;;;;17.68;83.10;99042.03;7395136;19;20032;-57
2022/11/20 01:14:38;;;;;;;8.25;1.73;;;;;;;18.02;82.36;99033.59;7390897;19;20015;-57
2022/11/20 01:17:04;;;;;;;1.35;1.15;;;;;;;18.02;82.04;99037.16;7391628;19;20021;-57
2022/11/20 01:19:31;;;;;;;1.48;1.08;;;;;;;18.02;82.39;99028.72;7393578;19;20014;-57
2022/11/20 01:21:57;;;;;;;2.10;1.02;;;;;;;18.00;81.89;99028.50;7394987;19;20031;-57
2022/11/20 01:24:24;;;;;;;2.03;1.10;;;;;;;17.75;82.42;99016.03;7391503;19;20011;-57
2022/11/20 01:26:51;;;;;;;1.38;0.93;;;;;;;17.79;82.50;99016.44;7390707;19;20017;-57
2022/11/20 01:29:22;;;;;;;4.95;1.13;;;;;;;17.25;84.57;99005.00;7391318;19;20011;-57
2022/11/20 01:31:49;;;;;;;4.78;1.17;;;;;;;17.39;84.36;99003.69;7394423;19;20025;-57
2022/11/20 01:34:20;;;;;;;1.52;1.00;;;;;;;17.67;82.89;98998.25;7391500;19;20467;-57
2022/11/20 01:36:47;;;;;;;1.75;0.90;;;;;;;17.62;82.78;98989.94;7392089;19;20013;-57
2022/11/20 01:39:16;;;;;;;3.92;1.65;;;;;;;17.45;83.69;98981.84;7390221;19;20494;-57
2022/11/20 01:44:45;;;;;;;1.63;0.95;;;;;;;17.28;84.97;98970.16;7391347;19;20015;-57
2022/11/20 01:47:15;;;;;;;1.50;1.15;;;;;;;17.50;84.93;98966.88;7390523;19;20082;-56
2022/11/20 01:50:26;;;;;;;1.85;0.55;;;;;;;17.72;83.63;98960.78;7391133;19;20475;-57
2022/11/20 01:52:59;;;;;;;0.50;0.50;;;;;;;17.60;83.69;98958.75;7391281;19;20147;-57
2022/11/20 01:55:30;;;;;;;2.05;0.98;;;;;;;17.66;83.55;98943.25;7391790;19;20010;-57
2022/11/20 01:57:57;;;;;;;;;;;;;;;17.72;83.52;98937.47;7391246;19;20014;-57
2022/11/20 02:00:24;;;;;;;15.85;1.45;;;;;;;17.75;83.54;98930.75;7389842;19;20256;-58
2022/11/20 02:03:00;;;;;;;4.18;1.95;;;;;;;17.53;83.46;98932.03;7390067;19;20015;-58
2022/11/20 02:05:43;;;;;;;1.95;0.90;;;;;;;16.77;86.40;98923.88;7391398;19;20010;-58
2022/11/20 02:08:10;;;;;;;6.15;1.42;;;;;;;16.56;87.78;98926.56;7392481;19;20025;-58
2022/11/20 02:10:36;;;;;;;6.80;1.42;;;;;;;16.63;88.18;98921.03;7388494;19;20400;-58
2022/11/20 02:15:48;;;;;;;1.55;1.10;;;;;;;15.94;92.41;98917.63;7388664;19;20027;-58
2022/11/20 02:18:20;;;;;;;3.20;1.67;;;;;;;15.59;95.53;98907.47;7388890;19;20019;-58
2022/11/20 02:20:49;;;;;;;0.85;0.77;;;;;;;15.47;96.78;98911.72;7392394;19;20013;-59
2022/11/20 02:23:43;;;;;;;0.43;0.40;;;;;;;15.44;97.28;98903.63;7387904;19;20011;-59
2022/11/20 02:26:12;;;;;;;0.60;0.50;;;;;;;15.60;97.65;98889.34;7387006;19;20010;-59
2022/11/20 02:28:39;;;;;;;2.30;1.42;;;;;;;15.64;97.34;98889.03;7390951;19;20010;-59
2022/11/20 02:31:05;;;;;;;0.57;0.40;;;;;;;15.62;97.93;98880.38;7393183;19;20737;-60
2022/11/20 02:33:31;;;;;;;14.02;0.70;;;;;;;15.61;98.35;98873.25;7392270;19;20007;-60
2022/11/20 02:35:57;;;;;;;3.13;1.25;;;;;;;15.45;99.31;98874.25;7394307;19;20007;-60
2022/11/20 02:38:24;;;;;;;0.52;0.35;;;;;;;15.90;97.48;98866.66;7392784;19;20015;-60
2022/11/20 02:40:50;;;;;;;0.80;0.32;;;;;;;16.05;96.06;98864.09;7394081;19;20023;-60
2022/11/20 02:43:16;;;;;;;1.20;0.85;;;;;;;15.97;95.62;98860.41;7392684;19;20058;-59
2022/11/20 02:45:42;;;;;;;0.57;0.52;;;;;;;15.74;97.22;98848.06;7390639;19;20002;-59
2022/11/20 02:48:08;;;;;;;0.77;0.75;;;;;;;15.88;97.76;98841.16;7392303;19;20022;-59
2022/11/20 02:50:38;;;;;;;7.63;1.05;;;;;;;16.11;96.29;98833.88;7390522;19;20014;-59
2022/11/20 02:53:04;;;;;;;3.30;1.58;;;;;;;16.15;96.53;98825.13;7386569;19;20011;-59
2022/11/20 02:55:31;;;;;;;5.03;1.30;;;;;;;16.15;96.80;98823.06;7389542;19;20013;-58
2022/11/20 02:57:57;;;;;;;1.48;0.93;;;;;;;16.19;96.78;98826.31;7389405;19;20011;-58
2022/11/20 03:00:23;;;;;;;0.70;0.50;;;;;;;16.13;97.41;98827.72;7389203;19;20011;-58
2022/11/20 03:02:49;;;;;;;0.43;0.30;;;;;;;16.39;95.82;98822.13;7389463;19;20023;-57
2022/11/20 03:05:15;;;;;;;1.55;0.95;;;;;;;16.32;95.95;98815.09;7389187;19;20026;-57
2022/11/20 03:07:43;;;;;;;0.60;0.32;;;;;;;16.02;97.24;98808.25;7391397;19;20022;-58
2022/11/20 03:10:09;;;;;;;0.85;0.55;;;;;;;16.31;96.55;98799.50;7388506;19;20077;-57
2022/11/20 03:12:35;;;;;;;0.85;0.73;;;;;;;16.00;99.32;98789.16;7393008;19;20013;-57
2022/11/20 03:15:01;;;;;;;1.40;0.68;;;;;;;15.88;99.60;98788.59;7387163;19;20331;-57
2022/11/20 03:17:29;;;;;;;2.38;1.00;;;;;;;15.84;100.00;98790.19;7387827;19;20018;-57
2022/11/20 03:19:55;;;;;;;0.60;0.60;;;;;;;15.88;100.00;98790.63;7390989;19;20361;-57
2022/11/20 03:22:21;;;;;;;2.70;0.45;;;;;;;15.98;100.00;98783.31;7399213;19;20007;-57
2022/11/20 03:24:47;;;;;;;0.47;0.30;;;;;;;15.83;100.00;98778.19;7396469;19;20006;-57
2022/11/20 03:27:13;;;;;;;2.10;0.60;;;;;;;15.64;100.00;98779.56;7394669;19;20018;-56
2022/11/20 03:29:39;;;;;;;0.95;0.60;;;;;;;16.04;100.00;98769.16;7395833;19;20038;-57
2022/11/20 03:32:05;;;;;;;1.08;0.43;;;;;;;15.93;100.00;98765.25;7397893;19;20018;-56
2022/11/20 03:34:31;;;;;;;2.08;0.45;;;;;;;16.16;100.00;98750.78;7395727;19;20046;-56
2022/11/20 03:36:57;;;;;;;15.98;1.17;;;;;;;16.53;98.29;98765.38;7396403;19;20043;-56
2022/11/20 03:39:24;;;;;;;5.00;1.05;;;;;;;16.45;98.22;98752.50;7394272;19;20015;-56
2022/11/20 03:41:50;;;;;;;2.08;0.45;;;;;;;16.43;99.39;98750.25;7398318;19;20384;-56
2022/11/20 03:44:16;;;;;;;2.05;1.83;;;;;;;16.17;100.00;98744.63;7393691;19;20037;-56
2022/11/20 03:46:42;;;;;;;9.27;1.38;;;;;;;16.30;99.65;98739.00;7395328;19;20017;-56
2022/11/20 03:49:08;;;;;;;0.30;0.30;;;;;;;16.48;99.62;98746.53;7393446;19;20763;-56
2022/11/20 03:51:35;;;;;;;0.40;0.30;;;;;;;16.28;100.00;98736.00;7396914;19;20016;-56
2022/11/20 03:54:04;;;;;;;0.32;0.22;;;;;;;16.53;99.81;98740.09;7396109;19;20020;-56
2022/11/20 03:56:35;;;;;;;0.93;0.75;;;;;;;16.44;100.00;98751.72;7395243;19;20011;-56
2022/11/20 03:59:02;;;;;;;13.90;1.00;;;;;;;16.70;99.37;98733.34;7395603;19;20015;-56
2022/11/20 04:01:31;;;;;;;0.40;0.25;;;;;;;16.70;99.41;98730.53;7397230;19;20495;-56
2022/11/20 04:03:58;;;;;;;0.57;0.43;;;;;;;17.05;97.86;98721.53;7394222;19;20021;-56
2022/11/20 04:06:27;;;;;;;0.30;0.20;;;;;;;17.07;96.73;98716.09;7395100;19;20003;-56
2022/11/20 04:08:58;;;;;;;2.33;0.68;;;;;;;17.25;96.20;98715.16;7391024;19;20034;-57
2022/11/20 04:11:29;;;;;;;1.30;0.73;;;;;;;17.05;97.10;98716.66;7392263;19;20018;-54
2022/11/20 04:14:01;;;;;;;0.32;0.22;;;;;;;16.57;98.99;98726.44;7392205;19;20082;-55
2022/11/20 04:16:33;;;;;;;2.05;0.47;;;;;;;16.43;100.00;98713.72;7391979;19;20010;-55
2022/11/20 04:19:01;;;;;;;0.40;0.40;;;;;;;16.91;98.88;98709.59;7392476;19;20018;-54
2022/11/20 04:21:28;;;;;;;0.38;0.38;;;;;;;16.72;99.71;98708.25;7394237;19;20018;-54
2022/11/20 04:23:55;;;;;;;0.90;0.50;;;;;;;16.23;100.00;98708.75;7391784;19;20022;-54
2022/11/20 04:26:24;;;;;;;0.52;0.17;;;;;;;16.01;100.00;98714.81;7390644;19;20015;-54
2022/11/20 04:28:50;;;;;;;1.05;0.73;;;;;;;15.81;100.00;98707.03;7390760;19;20455;-54
2022/11/20 04:31:19;;;;;;;0.30;0.30;;;;;;;16.23;100.00;98705.19;7395886;19;20074;-57
2022/11/20 04:33:45;;;;;;;0.82;0.35;;;;;;;16.33;100.00;98701.38;7391057;19;20019;-54
2022/11/20 04:36:17;;;;;;;0.93;0.30;;;;;;;16.11;100.00;98701.09;7392573;19;20066;-54
2022/11/20 04:38:44;;;;;;;0.22;0.20;;;;;;;16.04;100.00;98704.56;7393232;19;20359;-57
2022/11/20 04:41:19;;;;;;;0.20;0.20;;;;;;;16.08;100.00;98702.94;7394371;19;20014;-57
2022/11/20 04:43:50;;;;;;;0.20;0.20;;;;;;;15.25;100.00;98706.47;7391920;19;20034;-57
2022/11/20 04:46:18;;;;;;;0.30;0.30;;;;;;;15.80;100.00;98700.69;7392408;19;20015;-57
2022/11/20 04:48:44;;;;;;;0.10;0.10;;;;;;;15.96;100.00;98695.28;7391365;19;20458;-57
2022/11/20 04:51:10;;;;;;;0.20;0.10;;;;;;;15.77;100.00;98703.78;7395114;19;20021;-57
2022/11/20 04:53:36;;;;;;;0.15;0.10;;;;;;;15.73;100.00;98728.63;7393080;19;20015;-57
2022/11/20 04:56:06;;;;;;;1.17;0.52;;;;;;;15.55;100.00;98729.47;7393814;19;20017;-57
2022/11/20 04:58:33;;;;;;;0.10;0.10;;;;;;;15.77;100.00;98737.47;7393050;19;20486;-57
2022/11/20 05:01:04;;;;;;;1.75;0.75;;;;;;;15.84;100.00;98734.03;7394461;19;20032;-57
2022/11/20 05:03:30;;;;;;;0.10;0.10;;;;;;;16.00;100.00;98741.41;7392141;19;20085;-57
2022/11/20 05:06:01;;;;;;;3.63;0.55;;;;;;;15.86;100.00;98739.88;7391933;19;20006;-57
2022/11/20 05:08:27;;;;;;;0.20;0.20;;;;;;;15.69;100.00;98753.44;7395111;19;20015;-57
2022/11/20 05:10:54;;;;;;;8.27;0.43;;;;;;;15.55;100.00;98746.31;7394159;19;20093;-57
2022/11/20 05:13:20;;;;;;;0.20;0.20;;;;;;;15.60;100.00;98748.25;7391100;19;20014;-56
2022/11/20 05:15:46;;;;;;;0.28;0.15;;;;;;;15.54;100.00;98739.94;7392126;19;20011;-57
2022/11/20 05:18:12;;;;;;;0.10;0.10;;;;;;;15.55;100.00;98732.28;7393031;19;20064;-56
2022/11/20 05:20:38;;;;;;;0.30;0.28;;;;;;;15.39;100.00;98727.69;7395648;19;20095;-54
2022/11/20 05:23:04;;;;;;;0.10;0.10;;;;;;;15.30;100.00;98736.50;7390804;19;20404;-56
2022/11/20 05:25:30;;;;;;;0.20;0.20;;;;;;;15.48;100.00;98732.91;7392391;19;20532;-55
2022/11/20 05:27:56;;;;;;;0.10;0.10;;;;;;;15.76;100.00;98738.78;7391006;19;20010;-55
2022/11/20 05:30:22;;;;;;;0.10;0.10;;;;;;;16.28;100.00;98736.00;7392208;19;20021;-54
2022/11/20 05:32:48;;;;;;;0.95;0.80;;;;;;;16.11;100.00;98729.94;7391537;19;20070;-55
2022/11/20 05:35:14;;;;;;;0.45;0.45;;;;;;;16.49;100.00;98725.56;7391273;19;20006;-56
2022/11/20 05:37:40;;;;;;;0.10;0.10;;;;;;;16.50;100.00;98726.38;7391022;19;20018;-56
2022/11/20 05:40:07;;;;;;;2.05;0.45;;;;;;;16.38;100.00;98720.19;7391568;19;20014;-55
2022/11/20 05:42:33;;;;;;;0.30;0.30;;;;;;;16.31;100.00;98723.66;7394876;19;20577;-56
2022/11/20 05:45:01;;;;;;;0.20;0.10;;;;;;;16.24;100.00;98721.50;7390284;19;20347;-56
2022/11/20 05:47:31;;;;;;;0.20;0.20;;;;;;;16.22;100.00;98724.09;7391261;19;20448;-55
2022/11/20 05:49:58;;;;;;;0.10;0.10;;;;;;;16.21;100.00;98716.97;7394605;19;20062;-56
2022/11/20 05:52:24;;;;;;;0.50;0.50;;;;;;;16.45;100.00;98713.91;7395382;19;20014;-55
2022/11/20 05:54:50;;;;;;;2.30;0.65;;;;;;;16.44;100.00;98715.19;7391582;19;20380;-55
2022/11/20 05:57:16;;;;;;;1.27;0.57;;;;;;;17.00;100.00;98711.19;7391414;19;20463;-55
2022/11/20 05:59:43;;;;;;;0.30;0.17;;;;;;;17.15;100.00;98705.69;7390341;19;20011;-56
2022/11/20 06:02:09;;;;;;;0.55;0.40;;;;;;;17.20;100.00;98707.59;7393981;19;20363;-56
2022/11/20 06:04:35;;;;;;;0.30;0.20;;;;;;;13.85;100.00;98715.28;7390076;19;20007;-54
2022/11/20 06:07:01;;;;;;;0.20;0.20;;;;;;;16.30;100.00;98707.34;7391576;19;20006;-57
2022/11/20 06:09:27;;;;;;;0.40;0.10;;;;;;;12.32;100.00;98707.59;7388930;19;20104;-56
2022/11/20 06:11:53;;;;;;;0.10;0.10;;;;;;;16.74;100.00;98708.47;7393898;19;20011;-56
2022/11/20 06:14:19;;;;;;;0.13;0.13;;;;;;;17.15;100.00;98700.81;7390616;19;20358;-56
2022/11/20 06:16:45;;;;;;;0.17;0.17;;;;;;;17.08;100.00;98695.13;7389798;19;20031;-55
2022/11/20 06:19:12;;;;;;;0.13;0.10;;;;;;;17.57;96.44;98695.19;7390508;19;20026;-56
2022/11/20 06:21:38;;;;;;;0.40;0.20;;;;;;;17.53;95.12;98712.44;7390571;19;20019;-56
2022/11/20 06:24:04;;;;;;;2.10;0.40;;;;;;;17.10;97.04;98698.91;7390239;19;20017;-56
2022/11/20 06:26:30;;;;;;;0.85;0.52;;;;;;;17.17;95.40;98703.09;7388079;19;20007;-56
2022/11/20 06:28:57;;;;;;;0.93;0.25;;;;;;;17.19;94.38;98711.75;7387828;19;20019;-56
2022/11/20 06:31:25;;;;;;;0.10;0.10;;;;;;;17.22;93.59;98710.63;7392528;19;20014;-56
2022/11/20 06:33:52;;;;;;;0.70;0.43;;;;;;;17.09;92.44;98707.88;7389032;19;20007;-56
2022/11/20 06:36:21;;;;;;;0.60;0.60;;;;;;;17.25;90.74;98713.13;7388096;19;20025;-56
2022/11/20 06:38:47;;;;;;;1.10;0.10;;;;;;;17.18;90.59;98708.16;7387974;19;20010;-56
2022/11/20 06:41:17;;;;;;;0.10;0.10;;;;;;;16.99;90.44;98706.84;7390660;19;20011;-56
2022/11/20 06:43:43;;;;;;;0.63;0.25;;;;;;;17.02;89.71;98711.38;7389686;19;20062;-56
2022/11/20 06:46:11;;;;;;;0.30;0.30;;;;;;;17.01;89.59;98707.81;7388955;19;20494;-54
2022/11/20 06:48:38;;;;;;;0.40;0.20;;;;;;;16.86;89.54;98713.28;7387940;19;20010;-53
2022/11/20 06:51:05;;;;;;;0.17;0.17;;;;;;;16.67;89.76;98713.44;7393856;19;20018;-56
2022/11/20 06:53:32;;;;;;;1.95;0.70;;;;;;;16.65;89.74;98724.47;7389175;19;20011;-56
2022/11/20 06:55:58;;;;;;;0.20;0.20;;;;;;;16.60;89.15;98725.38;7390084;19;20031;-56
2022/11/20 06:58:27;;;;;;;0.10;0.10;;;;;;;16.44;89.47;98723.63;7395288;19;20023;-56
2022/11/20 07:01:02;;;;;;;0.40;0.10;;;;;;;16.73;89.32;98726.63;7397077;19;20565;-56
2022/11/20 07:03:28;;;;;;;0.63;0.40;;;;;;;16.68;88.87;98719.81;7396700;19;20025;-56
2022/11/20 07:05:56;;;;;;;0.28;0.28;;;;;;;16.61;88.62;98728.94;7395076;19;20015;-56
2022/11/20 07:08:22;;;;;;;0.75;0.75;;;;;;;16.58;88.67;98744.84;7398800;19;20010;-56
2022/11/20 07:10:49;;;;;;;0.55;0.40;;;;;;;16.73;87.58;98737.88;7397061;19;20011;-56
2022/11/20 07:13:15;;;;;;;0.20;0.20;;;;;;;16.74;87.53;98745.03;7393709;19;20066;-59
2022/11/20 07:15:41;;;;;;;2.38;0.52;;;;;;;16.60;87.69;98744.28;7395412;19;20032;-57
2022/11/20 07:18:07;;;;;;;3.53;0.98;;;;;;;16.68;86.80;98751.50;7396117;19;20341;-57
2022/11/20 07:20:33;;;;;;;0.20;0.20;;;;;;;16.40;87.07;98745.69;7399905;19;20082;-57
2022/11/20 07:22:59;;;;;;;0.30;0.30;;;;;;;16.27;88.12;98737.28;7396027;19;20007;-57
2022/11/20 07:25:27;;;;;;;2.70;0.75;;;;;;;16.19;88.12;98742.03;7395993;19;20010;-56
2022/11/20 07:28:00;;;;;;;0.75;0.50;;;;;;;16.29;87.85;98751.53;7394732;19;20007;-56
2022/11/20 07:30:27;;;;;;;1.35;0.68;;;;;;;16.39;87.73;98757.47;7395593;19;20070;-56
2022/11/20 07:32:54;;;;;;;0.50;0.50;;;;;;;15.79;89.70;98754.53;7394437;19;20030;-56
2022/11/20 07:35:22;;;;;;;0.30;0.30;;;;;;;16.05;89.41;98754.56;7396484;19;20021;-56
2022/11/20 07:37:48;;;;;;;0.40;0.40;;;;;;;16.21;88.65;98761.16;7394446;19;20021;-56
2022/11/20 07:40:15;;;;;;;1.55;0.43;;;;;;;16.31;87.67;98760.19;7395011;19;20011;-56
2022/11/20 07:42:52;;;;;;;0.47;0.22;;;;;;;16.56;86.63;98753.06;7393056;19;20011;-56
2022/11/20 07:45:19;;;;;;;4.03;0.80;;;;;;;16.60;86.23;98756.28;7394769;19;20625;-56
2022/11/20 07:47:46;;;;;;;0.40;0.40;;;;;;;16.45;86.52;98764.50;7394632;19;20023;-56
2022/11/20 07:50:13;;;;;;;1.27;1.05;;;;;;;16.49;86.57;98775.41;7397525;19;20382;-56
2022/11/20 07:52:40;;;;;;;1.75;0.55;;;;;;;15.88;88.36;98765.34;7398557;19;20010;-56
2022/11/20 07:55:07;;;;;;;0.85;0.25;;;;;;;16.33;87.51;98773.69;7395584;19;20027;-56
2022/11/20 07:57:33;;;;;;;0.68;0.47;;;;;;;16.41;86.49;98774.56;7394500;19;20010;-56
2022/11/20 07:59:59;;;;;;;3.55;1.23;;;;;;;16.38;86.74;98776.38;7397696;19;20006;-56
2022/11/20 08:02:25;;;;;;;0.55;0.47;;;;;;;16.41;86.79;98775.31;7397687;19;20010;-56
2022/11/20 08:04:51;;;;;;;0.52;0.52;;;;;;;16.42;87.24;98776.06;7399694;19;20011;-57
2022/11/20 08:07:17;;;;;;;0.40;0.30;;;;;;;15.88;89.05;98776.59;7399241;19;20011;-56
2022/11/20 08:09:44;;;;;;;0.85;0.55;;;;;;;15.61;89.77;98777.84;7397198;19;20010;-56
2022/11/20 08:15:05;;;;;;;0.20;0.20;;;;;;;15.53;91.57;98774.91;7395776;19;20011;-90
2022/11/20 08:17:32;;;;;;;0.40;0.38;;;;;;;15.74;91.35;98770.19;7397847;19;20018;-88
2022/11/20 08:19:58;;;;;;;0.10;0.10;;;;;;;15.70;91.42;98774.63;7403750;19;20011;-90
2022/11/20 08:22:25;;;;;;;0.30;0.28;;;;;;;15.25;93.82;98779.41;7402547;19;20006;-90
2022/11/20 08:24:51;;;;;;;0.45;0.30;;;;;;;15.45;93.29;98776.81;7401256;19;20021;-92
2022/11/20 08:27:17;;;;;;;0.25;0.22;;;;;;;15.37;94.14;98770.31;7402254;19;20350;-92
2022/11/20 08:29:43;;;;;;;0.17;0.17;;;;;;;15.55;94.41;98774.38;7393296;19;20041;-92
2022/11/20 08:32:09;;;;;;;0.28;0.28;;;;;;;15.59;93.87;98786.03;7395361;19;20022;-90
2022/11/20 08:34:35;;;;;;;0.50;0.50;;;;;;;15.68;93.50;98788.44;7398403;19;20015;-91
2022/11/20 08:37:02;;;;;;;0.38;0.38;;;;;;;15.05;95.63;98792.69;7400768;19;20010;-92
2022/11/20 08:39:28;;;;;;;2.72;0.95;;;;;;;14.86;97.61;98788.38;7398786;19;20014;-90
2022/11/20 08:41:54;;;;;;;1.20;0.30;;;;;;;14.97;98.26;98780.59;7400040;19;20486;-91
2022/11/20 08:44:21;;;;;;;1.52;0.47;;;;;;;15.37;96.54;98791.97;7398673;19;20359;-90
2022/11/20 08:46:47;;;;;;;0.10;0.10;;;;;;;15.79;94.29;98785.41;7399573;19;20019;-90
2022/11/20 08:49:14;;;;;;;0.10;0.10;;;;;;;15.84;93.29;98785.34;7398966;19;20007;-89
2022/11/20 08:51:41;;;;;;;0.30;0.30;;;;;;;15.97;92.51;98787.41;7398905;19;20010;-89
2022/11/20 08:54:08;;;;;;;0.47;0.38;;;;;;;15.90;92.79;98793.66;7398836;19;20363;-88
2022/11/20 08:56:34;;;;;;;2.33;1.17;;;;;;;15.72;93.17;98795.22;7399114;19;20038;-88
2022/11/20 08:59:00;;;;;;;0.88;0.70;;;;;;;15.63;93.29;98797.72;7396333;19;20019;-89
2022/11/20 09:01:27;;;;;;;0.50;0.20;;;;;;;15.57;93.42;98811.09;7392085;19;20018;-88
2022/11/20 09:03:57;;;;;;;0.25;0.25;;;;;;;15.40;94.64;98802.16;7391201;19;20018;-88
2022/11/20 09:06:23;;;;;;;0.52;0.52;;;;;;;15.27;94.58;98810.50;7388351;19;20029;-89
2022/11/20 09:08:53;;;;;;;0.85;0.52;;;;;;;15.20;94.34;98807.00;7398241;19;20018;-89
2022/11/20 09:11:19;;;;;;;0.30;0.30;;;;;;;15.09;94.96;98818.38;7398129;19;20010;-89
2022/11/20 09:13:45;;;;;;;0.20;0.20;;;;;;;15.04;95.99;98812.88;7398111;19;20010;-89
2022/11/20 09:16:11;;;;;;;0.20;0.20;;;;;;;15.15;95.16;98819.09;7396612;19;20029;-88
2022/11/20 09:18:38;;;;;;;0.47;0.38;;;;;;;15.03;95.46;98830.97;7395654;19;20021;-89
2022/11/20 09:21:07;;;;;;;0.40;0.40;;;;;;;15.25;94.63;98818.66;7401155;19;20022;-88
2022/11/20 09:23:35;;;;;;;12.35;0.75;;;;;;;15.27;94.25;98827.34;7395283;19;20011;-88
2022/11/20 09:26:06;;;;;;;0.50;0.50;;;;;;;15.34;94.37;98815.47;7397209;19;20468;-88
2022/11/20 09:28:32;;;;;;;1.23;0.43;;;;;;;15.35;94.56;98822.63;7395220;19;20022;-89
2022/11/20 09:30:59;;;;;;;0.10;0.10;;;;;;;15.46;94.20;98811.25;7395469;19;20018;-89
2022/11/20 09:33:25;;;;;;;2.17;0.85;;;;;;;15.39;94.41;98814.66;7394256;19;20572;-89
2022/11/20 09:35:51;;;;;;;0.55;0.50;;;;;;;15.40;94.69;98802.16;7393880;19;20018;-89
2022/11/20 09:38:18;;;;;;;2.85;1.08;;;;;;;15.69;94.30;98812.41;7392934;19;20035;-89
2022/11/20 09:41:35;;;;;;;0.30;0.30;;;;;;;15.88;93.88;98816.66;7392827;19;20789;-89
2022/11/20 09:44:07;;;;;;;0.40;0.20;;;;;;;16.16;93.74;98804.91;7392891;19;20042;-88
2022/11/20 09:46:42;;;;;;;0.28;0.28;;;;;;;16.07;94.72;98796.91;7393051;19;20027;-88
2022/11/20 09:49:17;;;;;;;6.95;0.95;;;;;;;16.22;95.10;98797.13;7393832;19;20302;-89
2022/11/20 09:51:53;;;;;;;8.35;0.75;;;;;;;16.42;95.12;98804.16;7397070;19;20018;-89
2022/11/20 09:54:22;;;;;;;0.30;0.30;;;;;;;16.59;95.83;98804.59;7397222;19;20014;-89
2022/11/20 09:57:13;;;;;;;6.82;0.75;;;;;;;16.71;95.73;98805.13;7394260;19;20014;-89
2022/11/20 09:59:45;;;;;;;1.25;0.40;;;;;;;16.83;94.96;98804.34;7396713;19;20010;-88
2022/11/20 10:02:16;;;;;;;12.05;0.40;;;;;;;16.81;95.22;98800.56;7398818;19;20077;-88
2022/11/20 10:04:47;;;;;;;0.97;0.87;;;;;;;16.69;96.07;98800.06;7395130;19;20006;-89
2022/11/20 10:07:32;;;;;;;0.75;0.47;;;;;;;16.66;97.41;98810.34;7396154;19;20015;-88
2022/11/20 10:09:58;;;;;;;1.95;0.20;;;;;;;16.89;97.19;98804.97;7395996;19;20014;-89
2022/11/20 10:12:53;;;;;;;5.60;0.85;;;;;;;17.02;97.14;98809.84;7398528;19;20014;-87
2022/11/20 10:15:52;;;;;;;1.85;1.08;;;;;;;17.28;96.38;98812.56;7391793;19;20011;-89
2022/11/20 10:18:37;;;;;;;1.30;0.98;;;;;;;17.34;96.46;98818.81;7396021;19;20307;-90
2022/11/20 10:21:35;;;;;;;0.50;0.50;;;;;;;17.50;95.52;98822.56;7399358;19;20025;-89
2022/11/20 10:24:34;;;;;;;10.23;1.10;;;;;;;17.45;95.24;98827.75;7396751;19;20022;-90
2022/11/20 10:27:08;;;;;;;2.10;0.55;;;;;;;17.39;95.65;98823.53;7393271;19;20406;-90
2022/11/20 10:29:38;;;;;;;7.32;1.98;;;;;;;17.47;95.92;98820.81;7394417;19;20079;-90
2022/11/20 10:32:24;;;;;;;13.90;1.10;;;;;;;17.35;96.19;98820.31;7397525;19;20037;-89
2022/11/20 10:34:54;;;;;;;8.25;1.33;;;;;;;17.21;98.42;98816.81;7393583;19;20014;-90
2022/11/20 10:37:29;;;;;;;7.43;0.52;;;;;;;17.07;99.41;98814.56;7396140;19;20018;-89
2022/11/20 10:40:17;;;;;;;1.05;0.20;;;;;;;17.13;99.25;98796.25;7394803;19;20011;-89
2022/11/20 10:42:55;;;;;;;13.45;1.00;;;;;;;17.49;98.27;98801.31;7394099;19;20018;-89
2022/11/20 10:45:34;;;;;;;10.05;1.23;;;;;;;17.49;98.13;98801.31;7393509;19;20018;-89
2022/11/20 10:48:07;;;;;;;1.15;1.13;;;;;;;17.53;98.38;98793.31;7393481;19;20015;-89
2022/11/20 10:50:35;;;;;;;3.20;2.22;;;;;;;17.74;97.69;98796.88;7396105;19;20022;-89
2022/11/20 10:53:31;;;;;;;7.68;0.30;;;;;;;17.77;97.31;98788.09;7393037;19;20018;-88
2022/11/20 10:56:08;;;;;;;0.35;0.30;;;;;;;17.71;97.18;98789.53;7395830;19;20010;-88
2022/11/20 10:58:43;;;;;;;7.28;0.65;;;;;;;17.43;98.31;98795.84;7393964;19;20382;-90
2022/11/20 11:01:18;;;;;;;1.15;0.82;;;;;;;17.14;100.00;98794.22;7396489;19;20018;-89
2022/11/20 11:03:44;;;;;;;0.82;0.45;;;;;;;17.72;99.12;98800.25;7394636;19;20031;-89
2022/11/20 11:06:35;;;;;;;1.63;1.23;;;;;;;17.63;99.35;98795.09;7395153;19;20018;-89
2022/11/20 11:09:11;;;;;;;8.82;0.73;;;;;;;17.62;99.33;98787.22;7394340;19;20007;-89
2022/11/20 11:11:38;;;;;;;2.50;0.55;;;;;;;17.83;98.26;98785.88;7395898;19;20038;-89
2022/11/20 11:14:12;;;;;;;0.20;0.20;;;;;;;18.29;96.77;98783.38;7394174;19;20018;-88
2022/11/20 11:16:53;;;;;;;0.30;0.30;;;;;;;18.34;95.36;98793.75;7394247;19;20011;-89
2022/11/20 11:19:20;;;;;;;0.82;0.57;;;;;;;18.39;94.76;98778.75;7396470;19;20417;-89
2022/11/20 11:21:56;;;;;;;0.13;0.13;;;;;;;18.28;94.97;98782.63;7396883;19;20011;-89
2022/11/20 11:24:28;;;;;;;4.80;0.45;;;;;;;18.30;94.96;98774.38;7395130;19;20015;-89
2022/11/20 11:27:12;;;;;;;7.63;1.38;;;;;;;18.42;94.51;98772.00;7393795;19;20015;-89
2022/11/20 11:29:38;;;;;;;0.10;0.05;;;;;;;18.50;94.91;98767.19;7392611;19;20010;-89
2022/11/20 11:32:21;;;;;;;3.83;0.65;;;;;;;18.43;94.88;98771.44;7394436;19;20017;-88
2022/11/20 11:35:02;;;;;;;0.20;0.20;;;;;;;18.36;95.48;98769.34;7392598;19;20015;-87
2022/11/20 11:37:35;;;;;;;0.80;0.47;;;;;;;18.38;95.37;98771.59;7393570;19;20018;-89
2022/11/20 11:40:04;;;;;;;0.20;0.20;;;;;;;18.38;94.91;98771.59;7392322;19;20084;-88
2022/11/20 11:42:31;;;;;;;1.88;0.35;;;;;;;18.28;95.37;98773.44;7400323;19;20015;-88
2022/11/20 11:45:06;;;;;;;2.28;0.55;;;;;;;18.45;94.75;98760.38;7401167;19;20501;-88
2022/11/20 11:47:53;;;;;;;0.10;0.10;;;;;;;18.64;94.16;98757.28;7399647;19;20018;-88
2022/11/20 11:50:23;;;;;;;0.90;0.20;;;;;;;18.63;94.52;98761.41;7404041;19;20358;-87